sensor_id;sensor_type;location;lat;lon;timestamp;pressure;altitude;pressure_sealevel;temperature;humidity
67397;BME280;57728;50.448;18.824;2024-02-21T00:00:42;98516.75;;;6.59;80.15
67397;BME280;57728;50.448;18.824;2024-02-21T00:02:44;98508.78;;;6.50;80.14
67397;BME280;57728;50.448;18.824;2024-02-21T00:04:45;98515.22;;;6.49;80.14
67397;BME280;57728;50.448;18.824;2024-02-21T00:06:46;98512.06;;;6.46;80.14
67397;BME280;57728;50.448;18.824;2024-02-21T00:08:48;98514.88;;;6.37;80.43
67397;BME280;57728;50.448;18.824;2024-02-21T00:10:49;98513.47;;;6.42;80.38
67397;BME280;57728;50.448;18.824;2024-02-21T00:12:50;98524.69;;;6.39;80.35
67397;BME280;57728;50.448;18.824;2024-02-21T00:14:52;98512.56;;;6.34;80.39
67397;BME280;57728;50.448;18.824;2024-02-21T00:16:53;98512.75;;;6.33;80.69
67397;BME280;57728;50.448;18.824;2024-02-21T00:18:54;98503.63;;;6.34;80.75
67397;BME280;57728;50.448;18.824;2024-02-21T00:20:56;98507.16;;;6.34;80.72
67397;BME280;57728;50.448;18.824;2024-02-21T00:22:57;98496.53;;;6.33;80.79
67397;BME280;57728;50.448;18.824;2024-02-21T00:24:58;98490.88;;;6.28;80.72
67397;BME280;57728;50.448;18.824;2024-02-21T00:27:00;98503.44;;;6.35;80.70
67397;BME280;57728;50.448;18.824;2024-02-21T00:29:02;98497.75;;;6.30;80.58
67397;BME280;57728;50.448;18.824;2024-02-21T00:31:03;98497.75;;;6.30;80.76
67397;BME280;57728;50.448;18.824;2024-02-21T00:33:05;98491.25;;;6.25;81.01
67397;BME280;57728;50.448;18.824;2024-02-21T00:35:06;98489.41;;;6.25;81.16
67397;BME280;57728;50.448;18.824;2024-02-21T00:37:07;98493.94;;;6.25;80.89
67397;BME280;57728;50.448;18.824;2024-02-21T00:39:09;98490.41;;;6.24;81.19
67397;BME280;57728;50.448;18.824;2024-02-21T00:41:10;98493.31;;;6.23;81.21
67397;BME280;57728;50.448;18.824;2024-02-21T00:43:11;98483.72;;;6.20;81.12
67397;BME280;57728;50.448;18.824;2024-02-21T00:45:13;98488.09;;;6.21;81.15
67397;BME280;57728;50.448;18.824;2024-02-21T00:47:15;98483.72;;;6.20;81.31
67397;BME280;57728;50.448;18.824;2024-02-21T00:49:16;98477.47;;;6.19;81.28
67397;BME280;57728;50.448;18.824;2024-02-21T00:51:18;98476.19;;;6.15;81.44
67397;BME280;57728;50.448;18.824;2024-02-21T00:53:19;98472.06;;;6.19;81.58
67397;BME280;57728;50.448;18.824;2024-02-21T00:55:20;98476.25;;;6.22;81.50
67397;BME280;57728;50.448;18.824;2024-02-21T00:57:22;98469.38;;;6.19;81.45
67397;BME280;57728;50.448;18.824;2024-02-21T00:59:27;98465.63;;;6.20;81.49
67397;BME280;57728;50.448;18.824;2024-02-21T01:01:28;98472.06;;;6.19;81.58
67397;BME280;57728;50.448;18.824;2024-02-21T01:03:29;98473.69;;;6.14;81.62
67397;BME280;57728;50.448;18.824;2024-02-21T01:05:31;98462.41;;;6.10;81.79
67397;BME280;57728;50.448;18.824;2024-02-21T01:07:32;98465.38;;;6.15;81.89
67397;BME280;57728;50.448;18.824;2024-02-21T01:09:34;98478.03;;;6.15;81.81
67397;BME280;57728;50.448;18.824;2024-02-21T01:11:35;98463.25;;;6.11;81.93
67397;BME280;57728;50.448;18.824;2024-02-21T01:13:36;98467.81;;;6.10;81.84
67397;BME280;57728;50.448;18.824;2024-02-21T01:15:38;98371.13;;;5.54;81.82
67397;BME280;57728;50.448;18.824;2024-02-21T01:17:39;98459.06;;;6.08;81.93
67397;BME280;57728;50.448;18.824;2024-02-21T01:19:41;98465.75;;;6.12;82.11
67397;BME280;57728;50.448;18.824;2024-02-21T01:21:43;98459.09;;;6.15;82.24
67397;BME280;57728;50.448;18.824;2024-02-21T01:23:44;98459.31;;;6.13;81.97
67397;BME280;57728;50.448;18.824;2024-02-21T01:25:45;98457.66;;;6.12;82.01
67397;BME280;57728;50.448;18.824;2024-02-21T01:27:47;98462.00;;;6.13;82.04
67397;BME280;57728;50.448;18.824;2024-02-21T01:29:49;98469.09;;;6.14;81.98
67397;BME280;57728;50.448;18.824;2024-02-21T01:31:50;98454.75;;;6.14;81.93
67397;BME280;57728;50.448;18.824;2024-02-21T01:33:52;98451.19;;;6.13;81.91
67397;BME280;57728;50.448;18.824;2024-02-21T01:35:53;98446.19;;;6.10;82.03
67397;BME280;57728;50.448;18.824;2024-02-21T01:37:55;98442.19;;;6.06;82.00
67397;BME280;57728;50.448;18.824;2024-02-21T01:39:57;98449.06;;;6.09;82.21
67397;BME280;57728;50.448;18.824;2024-02-21T01:41:59;98438.25;;;6.09;82.27
67397;BME280;57728;50.448;18.824;2024-02-21T01:44:00;98426.16;;;6.05;82.33
67397;BME280;57728;50.448;18.824;2024-02-21T01:46:02;98434.72;;;6.08;82.48
67397;BME280;57728;50.448;18.824;2024-02-21T01:48:03;98430.34;;;6.07;82.31
67397;BME280;57728;50.448;18.824;2024-02-21T01:50:06;98413.94;;;5.94;82.37
67397;BME280;57728;50.448;18.824;2024-02-21T01:52:11;98420.84;;;5.96;82.22
67397;BME280;57728;50.448;18.824;2024-02-21T01:54:18;98429.44;;;6.00;82.47
67397;BME280;57728;50.448;18.824;2024-02-21T01:56:21;98433.53;;;5.96;82.51
67397;BME280;57728;50.448;18.824;2024-02-21T01:58:24;98440.63;;;5.97;82.56
67397;BME280;57728;50.448;18.824;2024-02-21T02:00:25;98435.56;;;5.94;82.87
67397;BME280;57728;50.448;18.824;2024-02-21T02:02:27;98425.81;;;5.93;82.90
67397;BME280;57728;50.448;18.824;2024-02-21T02:04:29;98422.91;;;5.94;82.95
67397;BME280;57728;50.448;18.824;2024-02-21T02:06:31;98410.13;;;5.88;82.92
67397;BME280;57728;50.448;18.824;2024-02-21T02:08:33;98415.00;;;5.93;83.11
67397;BME280;57728;50.448;18.824;2024-02-21T02:10:35;98414.13;;;5.92;83.14
67397;BME280;57728;50.448;18.824;2024-02-21T02:12:36;98409.78;;;5.91;83.10
67397;BME280;57728;50.448;18.824;2024-02-21T02:14:37;98408.69;;;5.85;83.19
67397;BME280;57728;50.448;18.824;2024-02-21T02:16:39;98408.28;;;5.89;83.16
67397;BME280;57728;50.448;18.824;2024-02-21T02:18:40;98407.44;;;5.88;83.29
67397;BME280;57728;50.448;18.824;2024-02-21T02:20:41;98418.25;;;5.88;83.46
67397;BME280;57728;50.448;18.824;2024-02-21T02:22:47;98381.31;;;5.74;83.42
67397;BME280;57728;50.448;18.824;2024-02-21T02:24:49;98410.34;;;5.86;83.50
67397;BME280;57728;50.448;18.824;2024-02-21T02:26:50;98405.59;;;5.89;83.61
67397;BME280;57728;50.448;18.824;2024-02-21T02:28:52;98405.41;;;5.90;83.47
67397;BME280;57728;50.448;18.824;2024-02-21T02:30:53;98396.47;;;5.90;83.52
67397;BME280;57728;50.448;18.824;2024-02-21T02:32:55;98404.63;;;5.96;83.54
67397;BME280;57728;50.448;18.824;2024-02-21T02:34:57;98407.63;;;6.01;83.59
67397;BME280;57728;50.448;18.824;2024-02-21T02:36:58;98399.31;;;6.03;83.41
67397;BME280;57728;50.448;18.824;2024-02-21T02:38:59;98398.03;;;5.99;83.09
67397;BME280;57728;50.448;18.824;2024-02-21T02:41:01;98399.97;;;6.05;83.11
67397;BME280;57728;50.448;18.824;2024-02-21T02:43:02;98405.38;;;6.05;82.93
67397;BME280;57728;50.448;18.824;2024-02-21T02:45:05;98390.59;;;6.01;82.96
67397;BME280;57728;50.448;18.824;2024-02-21T02:47:08;98388.91;;;6.00;82.69
67397;BME280;57728;50.448;18.824;2024-02-21T02:49:10;98394.94;;;6.02;83.07
67397;BME280;57728;50.448;18.824;2024-02-21T02:51:12;98384.13;;;6.02;82.95
67397;BME280;57728;50.448;18.824;2024-02-21T02:53:13;98390.38;;;6.02;82.97
67397;BME280;57728;50.448;18.824;2024-02-21T02:55:14;98388.69;;;6.01;83.01
67397;BME280;57728;50.448;18.824;2024-02-21T02:57:16;98394.19;;;6.08;83.00
67397;BME280;57728;50.448;18.824;2024-02-21T02:59:17;98390.44;;;6.09;82.88
67397;BME280;57728;50.448;18.824;2024-02-21T03:01:18;98399.59;;;6.08;82.68
67397;BME280;57728;50.448;18.824;2024-02-21T03:03:20;98397.91;;;6.07;82.79
67397;BME280;57728;50.448;18.824;2024-02-21T03:05:22;98394.56;;;6.05;82.87
67397;BME280;57728;50.448;18.824;2024-02-21T03:07:24;98399.13;;;6.05;82.81
67397;BME280;57728;50.448;18.824;2024-02-21T03:09:26;98404.09;;;6.01;83.04
67397;BME280;57728;50.448;18.824;2024-02-21T03:11:29;98400.72;;;5.99;83.07
67397;BME280;57728;50.448;18.824;2024-02-21T03:13:30;98387.31;;;5.91;83.19
67397;BME280;57728;50.448;18.824;2024-02-21T03:15:31;98393.94;;;5.88;83.50
67397;BME280;57728;50.448;18.824;2024-02-21T03:17:33;98382.59;;;5.78;83.78
67397;BME280;57728;50.448;18.824;2024-02-21T03:19:37;98378.59;;;5.74;84.06
67397;BME280;57728;50.448;18.824;2024-02-21T03:21:39;98377.50;;;5.68;84.29
67397;BME280;57728;50.448;18.824;2024-02-21T03:23:40;98385.81;;;5.66;84.41
67397;BME280;57728;50.448;18.824;2024-02-21T03:25:41;98386.19;;;5.63;84.71
67397;BME280;57728;50.448;18.824;2024-02-21T03:27:43;98392.16;;;5.59;84.95
67397;BME280;57728;50.448;18.824;2024-02-21T03:29:44;98388.41;;;5.60;85.25
67397;BME280;57728;50.448;18.824;2024-02-21T03:31:45;98378.47;;;5.60;85.47
67397;BME280;57728;50.448;18.824;2024-02-21T03:33:47;98381.19;;;5.60;85.40
67397;BME280;57728;50.448;18.824;2024-02-21T03:35:48;98375.88;;;5.52;85.63
67397;BME280;57728;50.448;18.824;2024-02-21T03:37:49;98383.03;;;5.60;85.55
67397;BME280;57728;50.448;18.824;2024-02-21T03:39:51;98375.31;;;5.57;85.65
67397;BME280;57728;50.448;18.824;2024-02-21T03:41:52;98379.97;;;5.63;85.90
67397;BME280;57728;50.448;18.824;2024-02-21T03:43:53;98378.91;;;5.64;85.75
67397;BME280;57728;50.448;18.824;2024-02-21T03:45:55;98372.06;;;5.61;85.76
67397;BME280;57728;50.448;18.824;2024-02-21T03:47:56;98357.81;;;5.53;85.87
67397;BME280;57728;50.448;18.824;2024-02-21T03:49:57;98359.88;;;5.50;86.01
67397;BME280;57728;50.448;18.824;2024-02-21T03:51:59;98384.59;;;5.69;86.14
67397;BME280;57728;50.448;18.824;2024-02-21T03:54:01;98389.81;;;5.71;86.01
67397;BME280;57728;50.448;18.824;2024-02-21T03:56:02;98389.41;;;5.74;85.77
67397;BME280;57728;50.448;18.824;2024-02-21T03:58:05;98375.47;;;5.70;85.70
67397;BME280;57728;50.448;18.824;2024-02-21T04:00:07;98372.75;;;5.70;85.49
67397;BME280;57728;50.448;18.824;2024-02-21T04:02:11;98386.31;;;5.77;85.43
67397;BME280;57728;50.448;18.824;2024-02-21T04:04:13;98382.59;;;5.78;85.45
67397;BME280;57728;50.448;18.824;2024-02-21T04:06:14;98353.78;;;5.63;85.31
67397;BME280;57728;50.448;18.824;2024-02-21T04:08:15;98378.06;;;5.78;85.50
67397;BME280;57728;50.448;18.824;2024-02-21T04:10:17;98377.00;;;5.79;85.35
67397;BME280;57728;50.448;18.824;2024-02-21T04:12:18;98374.69;;;5.76;85.33
67397;BME280;57728;50.448;18.824;2024-02-21T04:14:19;98381.19;;;5.82;85.36
67397;BME280;57728;50.448;18.824;2024-02-21T04:16:21;98377.00;;;5.79;85.27
67397;BME280;57728;50.448;18.824;2024-02-21T04:18:22;98382.22;;;5.81;85.16
67397;BME280;57728;50.448;18.824;2024-02-21T04:20:23;98383.47;;;5.78;84.97
67397;BME280;57728;50.448;18.824;2024-02-21T04:22:25;98382.59;;;5.78;85.08
67397;BME280;57728;50.448;18.824;2024-02-21T04:24:26;98376.38;;;5.77;85.24
67397;BME280;57728;50.448;18.824;2024-02-21T04:26:27;98380.75;;;5.78;84.97
67397;BME280;57728;50.448;18.824;2024-02-21T04:28:29;98372.66;;;5.78;84.94
67397;BME280;57728;50.448;18.824;2024-02-21T04:30:30;98352.63;;;5.73;84.99
67397;BME280;57728;50.448;18.824;2024-02-21T04:32:31;98362.88;;;5.77;84.87
67397;BME280;57728;50.448;18.824;2024-02-21T04:34:34;98351.78;;;5.72;84.84
67397;BME280;57728;50.448;18.824;2024-02-21T04:36:35;98373.00;;;5.75;84.92
67397;BME280;57728;50.448;18.824;2024-02-21T04:38:36;98361.56;;;5.73;84.95
67397;BME280;57728;50.448;18.824;2024-02-21T04:40:40;98358.88;;;5.73;84.94
67397;BME280;57728;50.448;18.824;2024-02-21T04:42:43;98361.56;;;5.73;85.06
67397;BME280;57728;50.448;18.824;2024-02-21T04:44:44;98363.06;;;5.76;85.05
67397;BME280;57728;50.448;18.824;2024-02-21T04:46:48;98357.66;;;5.76;85.00
67397;BME280;57728;50.448;18.824;2024-02-21T04:48:49;98341.44;;;5.76;84.99
67397;BME280;57728;50.448;18.824;2024-02-21T04:50:50;98352.06;;;5.77;84.79
67397;BME280;57728;50.448;18.824;2024-02-21T04:52:52;98348.50;;;5.77;84.67
67397;BME280;57728;50.448;18.824;2024-02-21T04:54:53;98343.94;;;5.77;84.72
67397;BME280;57728;50.448;18.824;2024-02-21T04:56:54;98340.22;;;5.78;84.63
67397;BME280;57728;50.448;18.824;2024-02-21T04:58:56;98346.47;;;5.79;84.76
67397;BME280;57728;50.448;18.824;2024-02-21T05:00:58;98351.47;;;5.82;84.72
67397;BME280;57728;50.448;18.824;2024-02-21T05:02:59;98346.88;;;5.82;84.46
67397;BME280;57728;50.448;18.824;2024-02-21T05:05:01;98342.16;;;5.84;84.53
67397;BME280;57728;50.448;18.824;2024-02-21T05:07:03;98336.28;;;5.81;84.20
67397;BME280;57728;50.448;18.824;2024-02-21T05:09:09;98341.13;;;5.85;84.28
67397;BME280;57728;50.448;18.824;2024-02-21T05:11:11;98346.53;;;5.85;84.14
67397;BME280;57728;50.448;18.824;2024-02-21T05:13:12;98338.78;;;5.82;83.96
67397;BME280;57728;50.448;18.824;2024-02-21T05:15:13;98338.97;;;5.81;84.04
67397;BME280;57728;50.448;18.824;2024-02-21T05:17:15;98341.31;;;5.84;84.14
67397;BME280;57728;50.448;18.824;2024-02-21T05:19:16;98339.44;;;5.84;83.87
67397;BME280;57728;50.448;18.824;2024-02-21T05:21:17;98344.84;;;5.84;83.75
67397;BME280;57728;50.448;18.824;2024-02-21T05:23:19;98329.47;;;5.85;83.85
67397;BME280;57728;50.448;18.824;2024-02-21T05:25:20;98344.84;;;5.84;83.73
67397;BME280;57728;50.448;18.824;2024-02-21T05:27:21;98337.75;;;5.83;83.98
67397;BME280;57728;50.448;18.824;2024-02-21T05:29:23;98330.31;;;5.85;83.75
67397;BME280;57728;50.448;18.824;2024-02-21T05:31:24;98335.06;;;5.83;83.95
67397;BME280;57728;50.448;18.824;2024-02-21T05:33:26;98330.44;;;5.77;84.02
67397;BME280;57728;50.448;18.824;2024-02-21T05:35:28;98331.06;;;5.79;84.06
67397;BME280;57728;50.448;18.824;2024-02-21T05:37:30;98331.94;;;5.80;84.06
67397;BME280;57728;50.448;18.824;2024-02-21T05:39:31;98327.75;;;5.77;84.25
67397;BME280;57728;50.448;18.824;2024-02-21T05:41:32;98335.66;;;5.79;84.54
67397;BME280;57728;50.448;18.824;2024-02-21T05:43:33;98326.25;;;5.75;84.44
67397;BME280;57728;50.448;18.824;2024-02-21T05:45:35;98303.47;;;5.62;84.40
67397;BME280;57728;50.448;18.824;2024-02-21T05:47:38;98331.06;;;5.79;84.31
67397;BME280;57728;50.448;18.824;2024-02-21T05:49:39;98330.44;;;5.77;84.21
67397;BME280;57728;50.448;18.824;2024-02-21T05:51:40;98324.38;;;5.75;84.17
67397;BME280;57728;50.448;18.824;2024-02-21T05:53:42;98322.34;;;5.77;84.37
67397;BME280;57728;50.448;18.824;2024-02-21T05:55:43;98322.97;;;5.79;84.31
67397;BME280;57728;50.448;18.824;2024-02-21T05:57:44;98321.31;;;5.78;84.51
67397;BME280;57728;50.448;18.824;2024-02-21T05:59:49;98316.53;;;5.80;84.40
67397;BME280;57728;50.448;18.824;2024-02-21T06:01:57;98320.25;;;5.79;84.39
67397;BME280;57728;50.448;18.824;2024-02-21T06:03:58;98315.06;;;5.78;84.38
67397;BME280;57728;50.448;18.824;2024-02-21T06:06:00;98322.78;;;5.81;84.57
67397;BME280;57728;50.448;18.824;2024-02-21T06:08:01;98330.69;;;5.82;84.35
67397;BME280;57728;50.448;18.824;2024-02-21T06:10:04;98320.25;;;5.79;84.50
67397;BME280;57728;50.448;18.824;2024-02-21T06:12:07;98328.44;;;5.86;84.25
67397;BME280;57728;50.448;18.824;2024-02-21T06:14:08;98324.53;;;5.89;84.31
67397;BME280;57728;50.448;18.824;2024-02-21T06:16:09;98304.91;;;5.80;84.20
67397;BME280;57728;50.448;18.824;2024-02-21T06:18:11;98324.13;;;5.92;83.96
67397;BME280;57728;50.448;18.824;2024-02-21T06:20:12;98325.53;;;5.88;84.03
67397;BME280;57728;50.448;18.824;2024-02-21T06:22:13;98326.19;;;5.90;84.07
67397;BME280;57728;50.448;18.824;2024-02-21T06:24:15;98326.00;;;5.91;83.96
67397;BME280;57728;50.448;18.824;2024-02-21T06:26:16;98316.41;;;5.89;84.04
67397;BME280;57728;50.448;18.824;2024-02-21T06:28:17;98319.56;;;5.92;84.01
67397;BME280;57728;50.448;18.824;2024-02-21T06:30:19;98320.59;;;5.91;83.97
67397;BME280;57728;50.448;18.824;2024-02-21T06:32:20;98317.50;;;5.94;83.94
67397;BME280;57728;50.448;18.824;2024-02-21T06:34:21;98311.63;;;5.91;84.09
67397;BME280;57728;50.448;18.824;2024-02-21T06:36:23;98296.66;;;5.88;84.05
67397;BME280;57728;50.448;18.824;2024-02-21T06:38:24;98293.78;;;5.90;83.99
67397;BME280;57728;50.448;18.824;2024-02-21T06:40:25;98313.50;;;6.05;83.99
67397;BME280;57728;50.448;18.824;2024-02-21T06:42:27;98293.28;;;6.01;83.95
67397;BME280;57728;50.448;18.824;2024-02-21T06:44:28;98319.31;;;6.09;83.55
67397;BME280;57728;50.448;18.824;2024-02-21T06:46:29;98313.91;;;6.09;83.52
67397;BME280;57728;50.448;18.824;2024-02-21T06:48:31;98310.38;;;6.08;83.37
67397;BME280;57728;50.448;18.824;2024-02-21T06:50:32;98306.63;;;6.09;83.28
67397;BME280;57728;50.448;18.824;2024-02-21T06:52:36;98309.34;;;6.09;83.17
67397;BME280;57728;50.448;18.824;2024-02-21T06:54:38;98315.41;;;6.11;83.13
67397;BME280;57728;50.448;18.824;2024-02-21T06:56:40;98302.00;;;6.03;82.87
67397;BME280;57728;50.448;18.824;2024-02-21T06:58:41;98322.09;;;6.15;82.74
67397;BME280;57728;50.448;18.824;2024-02-21T07:00:43;98323.75;;;6.16;82.62
67397;BME280;57728;50.448;18.824;2024-02-21T07:02:45;98313.78;;;6.17;82.54
67397;BME280;57728;50.448;18.824;2024-02-21T07:04:46;98307.09;;;6.13;82.35
67397;BME280;57728;50.448;18.824;2024-02-21T07:06:48;98316.91;;;6.20;82.51
67397;BME280;57728;50.448;18.824;2024-02-21T07:08:49;98315.06;;;6.21;82.35
67397;BME280;57728;50.448;18.824;2024-02-21T07:10:51;98327.72;;;6.20;82.16
67397;BME280;57728;50.448;18.824;2024-02-21T07:12:53;98317.56;;;6.23;82.23
67397;BME280;57728;50.448;18.824;2024-02-21T07:14:54;98308.78;;;6.20;82.20
67397;BME280;57728;50.448;18.824;2024-02-21T07:16:55;98317.56;;;6.23;82.01
67397;BME280;57728;50.448;18.824;2024-02-21T07:18:59;98309.25;;;6.24;82.06
67397;BME280;57728;50.448;18.824;2024-02-21T07:21:00;98306.75;;;6.23;82.20
67397;BME280;57728;50.448;18.824;2024-02-21T07:23:01;98310.75;;;6.27;82.24
67397;BME280;57728;50.448;18.824;2024-02-21T07:25:04;98305.97;;;6.29;82.36
67397;BME280;57728;50.448;18.824;2024-02-21T07:27:06;98305.56;;;6.32;82.34
67397;BME280;57728;50.448;18.824;2024-02-21T07:29:07;98300.34;;;6.30;82.26
67397;BME280;57728;50.448;18.824;2024-02-21T07:31:09;98304.34;;;6.34;82.40
67397;BME280;57728;50.448;18.824;2024-02-21T07:33:10;98307.91;;;6.35;82.38
67397;BME280;57728;50.448;18.824;2024-02-21T07:35:12;98301.22;;;6.37;82.39
67397;BME280;57728;50.448;18.824;2024-02-21T07:37:14;98301.88;;;6.40;82.46
67397;BME280;57728;50.448;18.824;2024-02-21T07:39:15;98303.16;;;6.44;82.42
67397;BME280;57728;50.448;18.824;2024-02-21T07:41:17;98292.78;;;6.47;82.32
67397;BME280;57728;50.448;18.824;2024-02-21T07:43:19;98280.06;;;6.41;82.46
67397;BME280;57728;50.448;18.824;2024-02-21T07:45:23;98292.41;;;6.50;82.34
67397;BME280;57728;50.448;18.824;2024-02-21T07:47:25;98294.03;;;6.51;82.31
67397;BME280;57728;50.448;18.824;2024-02-21T07:49:27;98292.63;;;6.56;82.48
67397;BME280;57728;50.448;18.824;2024-02-21T07:51:28;98290.78;;;6.56;82.22
67397;BME280;57728;50.448;18.824;2024-02-21T07:53:30;98282.44;;;6.58;82.27
67397;BME280;57728;50.448;18.824;2024-02-21T07:55:32;98280.16;;;6.61;82.32
67397;BME280;57728;50.448;18.824;2024-02-21T07:57:33;98279.56;;;6.66;82.14
67397;BME280;57728;50.448;18.824;2024-02-21T07:59:34;98277.31;;;6.69;81.89
67397;BME280;57728;50.448;18.824;2024-02-21T08:01:36;98256.44;;;6.57;81.75
67397;BME280;57728;50.448;18.824;2024-02-21T08:03:38;98274.84;;;6.75;81.53
67397;BME280;57728;50.448;18.824;2024-02-21T08:05:39;98279.84;;;6.78;81.45
67397;BME280;57728;50.448;18.824;2024-02-21T08:07:41;98282.97;;;6.81;81.02
67397;BME280;57728;50.448;18.824;2024-02-21T08:09:43;98266.13;;;6.79;80.80
67397;BME280;57728;50.448;18.824;2024-02-21T08:11:44;98276.50;;;6.76;80.79
67397;BME280;57728;50.448;18.824;2024-02-21T08:13:46;98278.38;;;6.75;80.91
67397;BME280;57728;50.448;18.824;2024-02-21T08:15:48;98269.84;;;6.78;81.34
67397;BME280;57728;50.448;18.824;2024-02-21T08:17:49;98265.72;;;6.82;81.09
67397;BME280;57728;50.448;18.824;2024-02-21T08:19:51;98273.41;;;6.85;81.12
67397;BME280;57728;50.448;18.824;2024-02-21T08:21:52;98262.63;;;6.92;81.24
67397;BME280;57728;50.448;18.824;2024-02-21T08:23:54;98252.88;;;6.98;81.34
67397;BME280;57728;50.448;18.824;2024-02-21T08:25:57;98262.06;;;7.03;80.64
67397;BME280;57728;50.448;18.824;2024-02-21T08:27:59;98257.91;;;7.08;80.85
67397;BME280;57728;50.448;18.824;2024-02-21T08:30:00;98246.50;;;7.19;80.89
67397;BME280;57728;50.448;18.824;2024-02-21T08:32:03;98253.03;;;7.58;81.46
67397;BME280;57728;50.448;18.824;2024-02-21T08:34:04;98244.72;;;8.13;80.63
67397;BME280;57728;50.448;18.824;2024-02-21T08:36:06;98242.97;;;8.66;79.81
67397;BME280;57728;50.448;18.824;2024-02-21T08:38:09;98246.06;;;9.28;78.47
67397;BME280;57728;50.448;18.824;2024-02-21T08:40:11;98228.47;;;9.94;76.98
67397;BME280;57728;50.448;18.824;2024-02-21T08:42:12;98236.13;;;10.73;74.08
67397;BME280;57728;50.448;18.824;2024-02-21T08:44:14;98242.63;;;11.21;70.08
67397;BME280;57728;50.448;18.824;2024-02-21T08:46:15;98234.88;;;11.36;68.95
67397;BME280;57728;50.448;18.824;2024-02-21T08:48:17;98223.44;;;11.16;67.05
67397;BME280;57728;50.448;18.824;2024-02-21T08:50:19;98232.19;;;10.88;67.17
67397;BME280;57728;50.448;18.824;2024-02-21T08:52:20;98231.66;;;10.60;67.50
67397;BME280;57728;50.448;18.824;2024-02-21T08:54:22;98218.50;;;10.32;67.46
67397;BME280;57728;50.448;18.824;2024-02-21T08:56:24;98225.06;;;9.99;67.46
67397;BME280;57728;50.448;18.824;2024-02-21T08:58:26;98223.56;;;9.78;67.99
67397;BME280;57728;50.448;18.824;2024-02-21T09:00:28;98227.19;;;9.72;68.62
67397;BME280;57728;50.448;18.824;2024-02-21T09:02:30;98225.44;;;9.84;69.32
67397;BME280;57728;50.448;18.824;2024-02-21T09:04:32;98228.78;;;10.05;68.51
67397;BME280;57728;50.448;18.824;2024-02-21T09:06:33;98217.94;;;10.48;68.72
67397;BME280;57728;50.448;18.824;2024-02-21T09:08:38;98220.41;;;11.24;68.27
67397;BME280;57728;50.448;18.824;2024-02-21T09:10:40;98229.38;;;11.97;65.31
67397;BME280;57728;50.448;18.824;2024-02-21T09:12:41;98227.03;;;12.13;64.01
67397;BME280;57728;50.448;18.824;2024-02-21T09:14:43;98227.16;;;12.18;63.00
67397;BME280;57728;50.448;18.824;2024-02-21T09:16:44;98227.28;;;12.11;62.84
67397;BME280;57728;50.448;18.824;2024-02-21T09:18:46;98233.56;;;12.00;62.69
67397;BME280;57728;50.448;18.824;2024-02-21T09:20:50;98233.50;;;11.88;63.05
67397;BME280;57728;50.448;18.824;2024-02-21T09:22:51;98235.13;;;11.77;61.89
67397;BME280;57728;50.448;18.824;2024-02-21T09:24:53;98229.66;;;11.65;62.41
67397;BME280;57728;50.448;18.824;2024-02-21T09:26:55;98228.06;;;11.46;62.52
67397;BME280;57728;50.448;18.824;2024-02-21T09:28:57;98225.75;;;11.31;62.17
67397;BME280;57728;50.448;18.824;2024-02-21T09:30:58;98227.28;;;11.08;62.60
67397;BME280;57728;50.448;18.824;2024-02-21T09:33:00;98231.13;;;10.89;63.00
67397;BME280;57728;50.448;18.824;2024-02-21T09:35:03;98241.34;;;10.75;63.03
67397;BME280;57728;50.448;18.824;2024-02-21T09:37:06;98229.06;;;10.65;63.21
67397;BME280;57728;50.448;18.824;2024-02-21T09:39:08;98235.72;;;10.70;63.89
67397;BME280;57728;50.448;18.824;2024-02-21T09:41:25;98238.44;;;10.88;63.76
67397;BME280;57728;50.448;18.824;2024-02-21T09:43:33;98231.00;;;11.14;63.51
67397;BME280;57728;50.448;18.824;2024-02-21T09:45:38;98229.53;;;11.30;62.62
67397;BME280;57728;50.448;18.824;2024-02-21T09:50:13;98229.00;;;11.21;61.56
67397;BME280;57728;50.448;18.824;2024-02-21T09:52:19;98214.22;;;10.98;61.93
67397;BME280;57728;50.448;18.824;2024-02-21T09:54:21;98220.44;;;11.06;62.29
67397;BME280;57728;50.448;18.824;2024-02-21T09:56:23;98222.81;;;11.14;62.63
67397;BME280;57728;50.448;18.824;2024-02-21T09:58:26;98233.25;;;11.35;62.79
67397;BME280;57728;50.448;18.824;2024-02-21T10:00:29;98225.06;;;11.35;61.83
67397;BME280;57728;50.448;18.824;2024-02-21T10:02:32;98227.56;;;11.37;61.87
67397;BME280;57728;50.448;18.824;2024-02-21T10:04:34;98228.38;;;11.38;61.48
67397;BME280;57728;50.448;18.824;2024-02-21T10:06:37;98241.09;;;11.44;61.93
67397;BME280;57728;50.448;18.824;2024-02-21T10:08:39;98238.81;;;11.83;61.89
67397;BME280;57728;50.448;18.824;2024-02-21T10:10:44;98242.13;;;12.27;60.55
67397;BME280;57728;50.448;18.824;2024-02-21T10:12:50;98210.91;;;12.35;59.36
67397;BME280;57728;50.448;18.824;2024-02-21T10:17:04;98229.56;;;12.50;58.12
67397;BME280;57728;50.448;18.824;2024-02-21T10:19:20;98217.81;;;12.37;58.31
67397;BME280;57728;50.448;18.824;2024-02-21T10:21:21;98218.97;;;12.30;58.23
67397;BME280;57728;50.448;18.824;2024-02-21T10:23:24;98226.22;;;12.24;58.60
67397;BME280;57728;50.448;18.824;2024-02-21T10:25:25;98218.25;;;12.11;58.64
67397;BME280;57728;50.448;18.824;2024-02-21T10:27:28;98220.97;;;11.99;58.83
67397;BME280;57728;50.448;18.824;2024-02-21T10:29:31;98215.59;;;11.92;58.96
67397;BME280;57728;50.448;18.824;2024-02-21T10:31:33;98212.75;;;11.87;59.14
67397;BME280;57728;50.448;18.824;2024-02-21T10:33:34;98222.78;;;11.75;58.56
67397;BME280;57728;50.448;18.824;2024-02-21T10:35:36;98212.34;;;11.60;59.02
67397;BME280;57728;50.448;18.824;2024-02-21T10:37:37;98207.78;;;11.42;59.54
67397;BME280;57728;50.448;18.824;2024-02-21T10:39:42;98204.16;;;11.29;59.94
67397;BME280;57728;50.448;18.824;2024-02-21T10:41:46;98195.97;;;11.17;60.58
67397;BME280;57728;50.448;18.824;2024-02-21T10:43:50;98214.41;;;11.15;60.94
67397;BME280;57728;50.448;18.824;2024-02-21T10:45:59;98197.19;;;11.03;60.96
67397;BME280;57728;50.448;18.824;2024-02-21T10:48:41;98195.47;;;10.90;61.35